sensor_id;sensor_type;location;lat;lon;timestamp;P1;durP1;ratioP1;P2;durP2;ratioP2
37483;SDS011;23337;52.212;9.926;2022-08-24T00:02:10;4.77;;;1.50;;
37483;SDS011;23337;52.212;9.926;2022-08-24T00:04:36;5.73;;;1.20;;
37483;SDS011;23337;52.212;9.926;2022-08-24T00:07:02;2.53;;;1.50;;
37483;SDS011;23337;52.212;9.926;2022-08-24T00:09:29;3.77;;;1.53;;
37483;SDS011;23337;52.212;9.926;2022-08-24T00:11:55;3.10;;;1.13;;
37483;SDS011;23337;52.212;9.926;2022-08-24T00:14:21;4.93;;;1.90;;
37483;SDS011;23337;52.212;9.926;2022-08-24T00:16:47;4.77;;;1.33;;
37483;SDS011;23337;52.212;9.926;2022-08-24T00:19:13;3.87;;;1.10;;
37483;SDS011;23337;52.212;9.926;2022-08-24T00:21:40;4.13;;;1.33;;
37483;SDS011;23337;52.212;9.926;2022-08-24T00:24:06;2.80;;;1.53;;
37483;SDS011;23337;52.212;9.926;2022-08-24T00:26:32;3.73;;;1.23;;
37483;SDS011;23337;52.212;9.926;2022-08-24T00:28:59;2.47;;;1.33;;
37483;SDS011;23337;52.212;9.926;2022-08-24T00:31:25;2.73;;;1.03;;
37483;SDS011;23337;52.212;9.926;2022-08-24T00:33:52;2.30;;;1.20;;
37483;SDS011;23337;52.212;9.926;2022-08-24T00:36:18;4.00;;;1.30;;
37483;SDS011;23337;52.212;9.926;2022-08-24T00:38:46;2.97;;;1.33;;
37483;SDS011;23337;52.212;9.926;2022-08-24T00:41:12;5.37;;;1.47;;
37483;SDS011;23337;52.212;9.926;2022-08-24T00:43:38;3.33;;;1.40;;
37483;SDS011;23337;52.212;9.926;2022-08-24T00:46:21;3.37;;;1.57;;
37483;SDS011;23337;52.212;9.926;2022-08-24T00:48:48;5.47;;;1.40;;
37483;SDS011;23337;52.212;9.926;2022-08-24T00:51:17;1.37;;;1.17;;
37483;SDS011;23337;52.212;9.926;2022-08-24T00:53:46;5.40;;;1.63;;
37483;SDS011;23337;52.212;9.926;2022-08-24T00:56:16;4.30;;;1.20;;
37483;SDS011;23337;52.212;9.926;2022-08-24T00:58:45;5.83;;;1.63;;
37483;SDS011;23337;52.212;9.926;2022-08-24T01:01:12;2.57;;;1.27;;
37483;SDS011;23337;52.212;9.926;2022-08-24T01:03:39;3.43;;;1.30;;
37483;SDS011;23337;52.212;9.926;2022-08-24T01:06:06;2.77;;;1.33;;
37483;SDS011;23337;52.212;9.926;2022-08-24T01:08:32;2.63;;;1.40;;
37483;SDS011;23337;52.212;9.926;2022-08-24T01:11:00;2.90;;;1.53;;
37483;SDS011;23337;52.212;9.926;2022-08-24T01:13:26;3.90;;;1.43;;
37483;SDS011;23337;52.212;9.926;2022-08-24T01:15:53;2.33;;;1.43;;
37483;SDS011;23337;52.212;9.926;2022-08-24T01:18:21;2.60;;;1.43;;
37483;SDS011;23337;52.212;9.926;2022-08-24T01:26:09;3.83;;;1.57;;
37483;SDS011;23337;52.212;9.926;2022-08-24T01:28:36;2.63;;;1.37;;
37483;SDS011;23337;52.212;9.926;2022-08-24T01:31:04;3.67;;;1.63;;
37483;SDS011;23337;52.212;9.926;2022-08-24T01:33:30;4.63;;;1.60;;
37483;SDS011;23337;52.212;9.926;2022-08-24T01:35:57;1.70;;;1.37;;
37483;SDS011;23337;52.212;9.926;2022-08-24T01:38:24;3.13;;;1.37;;
37483;SDS011;23337;52.212;9.926;2022-08-24T01:40:55;3.50;;;1.20;;
37483;SDS011;23337;52.212;9.926;2022-08-24T01:43:21;3.73;;;1.73;;
37483;SDS011;23337;52.212;9.926;2022-08-24T01:45:48;3.33;;;1.53;;
37483;SDS011;23337;52.212;9.926;2022-08-24T01:48:14;3.17;;;1.53;;
37483;SDS011;23337;52.212;9.926;2022-08-24T01:50:40;5.33;;;1.70;;
37483;SDS011;23337;52.212;9.926;2022-08-24T01:53:06;2.20;;;1.53;;
37483;SDS011;23337;52.212;9.926;2022-08-24T01:55:32;3.47;;;1.50;;
37483;SDS011;23337;52.212;9.926;2022-08-24T01:57:58;3.97;;;1.40;;
37483;SDS011;23337;52.212;9.926;2022-08-24T02:00:24;3.70;;;1.33;;
37483;SDS011;23337;52.212;9.926;2022-08-24T02:02:51;4.83;;;1.80;;
37483;SDS011;23337;52.212;9.926;2022-08-24T02:05:17;4.57;;;1.57;;
37483;SDS011;23337;52.212;9.926;2022-08-24T02:07:43;1.30;;;1.17;;
37483;SDS011;23337;52.212;9.926;2022-08-24T02:10:10;3.23;;;1.60;;
37483;SDS011;23337;52.212;9.926;2022-08-24T02:12:37;3.37;;;1.77;;
37483;SDS011;23337;52.212;9.926;2022-08-24T02:15:04;2.80;;;1.90;;
37483;SDS011;23337;52.212;9.926;2022-08-24T02:17:31;3.23;;;1.80;;
37483;SDS011;23337;52.212;9.926;2022-08-24T02:19:58;3.07;;;1.50;;
37483;SDS011;23337;52.212;9.926;2022-08-24T02:22:24;3.30;;;1.73;;
37483;SDS011;23337;52.212;9.926;2022-08-24T02:24:50;5.40;;;1.80;;
37483;SDS011;23337;52.212;9.926;2022-08-24T02:27:16;2.33;;;2.13;;
37483;SDS011;23337;52.212;9.926;2022-08-24T02:29:42;5.70;;;1.90;;
37483;SDS011;23337;52.212;9.926;2022-08-24T02:32:08;2.63;;;1.40;;
37483;SDS011;23337;52.212;9.926;2022-08-24T02:34:36;3.57;;;1.80;;
37483;SDS011;23337;52.212;9.926;2022-08-24T02:37:02;3.43;;;1.67;;
37483;SDS011;23337;52.212;9.926;2022-08-24T02:39:28;5.07;;;1.70;;
37483;SDS011;23337;52.212;9.926;2022-08-24T02:41:54;4.10;;;1.63;;
37483;SDS011;23337;52.212;9.926;2022-08-24T02:44:20;4.80;;;1.90;;
37483;SDS011;23337;52.212;9.926;2022-08-24T02:46:46;3.67;;;2.20;;
37483;SDS011;23337;52.212;9.926;2022-08-24T02:49:12;2.50;;;1.70;;
37483;SDS011;23337;52.212;9.926;2022-08-24T02:51:40;2.60;;;1.70;;
37483;SDS011;23337;52.212;9.926;2022-08-24T02:54:06;3.57;;;1.60;;
37483;SDS011;23337;52.212;9.926;2022-08-24T02:56:33;3.77;;;1.93;;
37483;SDS011;23337;52.212;9.926;2022-08-24T02:58:59;2.20;;;1.50;;
37483;SDS011;23337;52.212;9.926;2022-08-24T03:01:26;3.80;;;1.93;;
37483;SDS011;23337;52.212;9.926;2022-08-24T03:03:52;3.13;;;1.77;;
37483;SDS011;23337;52.212;9.926;2022-08-24T03:06:18;3.20;;;2.00;;
37483;SDS011;23337;52.212;9.926;2022-08-24T03:08:44;5.37;;;1.70;;
37483;SDS011;23337;52.212;9.926;2022-08-24T03:11:10;2.83;;;1.57;;
37483;SDS011;23337;52.212;9.926;2022-08-24T03:13:36;3.60;;;2.10;;
37483;SDS011;23337;52.212;9.926;2022-08-24T03:16:03;3.47;;;1.73;;
37483;SDS011;23337;52.212;9.926;2022-08-24T03:18:29;5.53;;;2.27;;
37483;SDS011;23337;52.212;9.926;2022-08-24T03:20:56;2.90;;;1.80;;
37483;SDS011;23337;52.212;9.926;2022-08-24T03:23:22;3.80;;;2.27;;
37483;SDS011;23337;52.212;9.926;2022-08-24T03:25:49;2.57;;;1.60;;
37483;SDS011;23337;52.212;9.926;2022-08-24T03:28:16;3.30;;;1.83;;
37483;SDS011;23337;52.212;9.926;2022-08-24T03:30:42;4.77;;;2.03;;
37483;SDS011;23337;52.212;9.926;2022-08-24T03:33:08;3.73;;;1.70;;
37483;SDS011;23337;52.212;9.926;2022-08-24T03:35:34;3.63;;;2.10;;
37483;SDS011;23337;52.212;9.926;2022-08-24T03:38:00;2.83;;;1.47;;
37483;SDS011;23337;52.212;9.926;2022-08-24T03:40:26;2.87;;;1.83;;
37483;SDS011;23337;52.212;9.926;2022-08-24T03:42:53;4.67;;;2.30;;
37483;SDS011;23337;52.212;9.926;2022-08-24T03:45:19;5.00;;;2.50;;
37483;SDS011;23337;52.212;9.926;2022-08-24T03:47:45;4.80;;;2.10;;
37483;SDS011;23337;52.212;9.926;2022-08-24T03:50:11;8.20;;;2.43;;
37483;SDS011;23337;52.212;9.926;2022-08-24T03:52:37;18.93;;;3.37;;
37483;SDS011;23337;52.212;9.926;2022-08-24T03:55:05;20.37;;;5.47;;
37483;SDS011;23337;52.212;9.926;2022-08-24T03:57:32;35.07;;;5.87;;
37483;SDS011;23337;52.212;9.926;2022-08-24T03:59:58;43.63;;;8.17;;
37483;SDS011;23337;52.212;9.926;2022-08-24T04:02:24;25.93;;;5.67;;
37483;SDS011;23337;52.212;9.926;2022-08-24T04:04:51;23.47;;;4.80;;
37483;SDS011;23337;52.212;9.926;2022-08-24T04:07:17;29.20;;;5.33;;
37483;SDS011;23337;52.212;9.926;2022-08-24T04:09:43;29.27;;;5.50;;
37483;SDS011;23337;52.212;9.926;2022-08-24T04:12:09;8.33;;;3.77;;
37483;SDS011;23337;52.212;9.926;2022-08-24T04:14:35;12.80;;;3.17;;
37483;SDS011;23337;52.212;9.926;2022-08-24T04:17:01;8.17;;;2.70;;
37483;SDS011;23337;52.212;9.926;2022-08-24T04:19:28;9.87;;;2.40;;
37483;SDS011;23337;52.212;9.926;2022-08-24T04:21:54;13.80;;;3.50;;
37483;SDS011;23337;52.212;9.926;2022-08-24T04:24:22;15.30;;;3.10;;
37483;SDS011;23337;52.212;9.926;2022-08-24T04:26:48;6.13;;;2.90;;
37483;SDS011;23337;52.212;9.926;2022-08-24T04:29:15;22.73;;;5.00;;
37483;SDS011;23337;52.212;9.926;2022-08-24T04:31:42;13.70;;;3.43;;
37483;SDS011;23337;52.212;9.926;2022-08-24T04:34:09;8.23;;;2.80;;
37483;SDS011;23337;52.212;9.926;2022-08-24T04:36:35;8.07;;;2.30;;
37483;SDS011;23337;52.212;9.926;2022-08-24T04:39:02;9.23;;;3.03;;
37483;SDS011;23337;52.212;9.926;2022-08-24T04:41:28;10.63;;;3.33;;
37483;SDS011;23337;52.212;9.926;2022-08-24T04:43:54;11.47;;;2.53;;
37483;SDS011;23337;52.212;9.926;2022-08-24T04:46:20;5.20;;;2.47;;
37483;SDS011;23337;52.212;9.926;2022-08-24T04:48:47;10.03;;;2.60;;
37483;SDS011;23337;52.212;9.926;2022-08-24T04:51:14;5.97;;;2.70;;
37483;SDS011;23337;52.212;9.926;2022-08-24T04:53:42;3.97;;;2.30;;
37483;SDS011;23337;52.212;9.926;2022-08-24T04:56:09;8.63;;;2.70;;
37483;SDS011;23337;52.212;9.926;2022-08-24T04:58:35;6.87;;;2.33;;
37483;SDS011;23337;52.212;9.926;2022-08-24T05:01:05;10.60;;;3.23;;
37483;SDS011;23337;52.212;9.926;2022-08-24T05:03:31;12.83;;;3.00;;
37483;SDS011;23337;52.212;9.926;2022-08-24T05:05:57;5.10;;;1.90;;
37483;SDS011;23337;52.212;9.926;2022-08-24T05:08:23;5.63;;;1.93;;
37483;SDS011;23337;52.212;9.926;2022-08-24T05:10:49;8.57;;;2.37;;
37483;SDS011;23337;52.212;9.926;2022-08-24T05:13:16;5.73;;;2.37;;
37483;SDS011;23337;52.212;9.926;2022-08-24T05:15:43;6.80;;;2.10;;
37483;SDS011;23337;52.212;9.926;2022-08-24T05:18:10;4.43;;;2.47;;
37483;SDS011;23337;52.212;9.926;2022-08-24T05:20:43;8.70;;;3.50;;
37483;SDS011;23337;52.212;9.926;2022-08-24T05:23:10;5.10;;;2.63;;
37483;SDS011;23337;52.212;9.926;2022-08-24T05:25:36;5.10;;;2.50;;
37483;SDS011;23337;52.212;9.926;2022-08-24T05:28:03;6.20;;;2.20;;
37483;SDS011;23337;52.212;9.926;2022-08-24T05:30:29;5.17;;;2.70;;
37483;SDS011;23337;52.212;9.926;2022-08-24T05:32:55;6.03;;;2.57;;
37483;SDS011;23337;52.212;9.926;2022-08-24T05:35:21;9.27;;;2.77;;
37483;SDS011;23337;52.212;9.926;2022-08-24T05:37:47;7.03;;;2.83;;
37483;SDS011;23337;52.212;9.926;2022-08-24T05:40:15;4.97;;;2.20;;
37483;SDS011;23337;52.212;9.926;2022-08-24T05:42:41;4.30;;;2.40;;
37483;SDS011;23337;52.212;9.926;2022-08-24T05:45:07;3.67;;;2.03;;
37483;SDS011;23337;52.212;9.926;2022-08-24T05:47:34;4.30;;;2.27;;
37483;SDS011;23337;52.212;9.926;2022-08-24T05:50:00;7.60;;;2.70;;
37483;SDS011;23337;52.212;9.926;2022-08-24T05:52:27;6.13;;;2.40;;
37483;SDS011;23337;52.212;9.926;2022-08-24T05:54:53;3.13;;;2.27;;
37483;SDS011;23337;52.212;9.926;2022-08-24T05:57:20;3.83;;;2.00;;
37483;SDS011;23337;52.212;9.926;2022-08-24T05:59:47;3.97;;;2.23;;
37483;SDS011;23337;52.212;9.926;2022-08-24T06:02:13;4.40;;;2.10;;
37483;SDS011;23337;52.212;9.926;2022-08-24T06:04:39;2.67;;;2.17;;
37483;SDS011;23337;52.212;9.926;2022-08-24T06:07:06;4.90;;;2.20;;
37483;SDS011;23337;52.212;9.926;2022-08-24T06:09:35;3.30;;;1.97;;
37483;SDS011;23337;52.212;9.926;2022-08-24T06:12:01;6.17;;;2.23;;
37483;SDS011;23337;52.212;9.926;2022-08-24T06:14:27;4.87;;;2.27;;
37483;SDS011;23337;52.212;9.926;2022-08-24T06:16:53;3.30;;;2.47;;
37483;SDS011;23337;52.212;9.926;2022-08-24T06:19:19;3.40;;;2.23;;
37483;SDS011;23337;52.212;9.926;2022-08-24T06:21:47;3.43;;;1.93;;
37483;SDS011;23337;52.212;9.926;2022-08-24T06:24:13;3.60;;;2.20;;
37483;SDS011;23337;52.212;9.926;2022-08-24T06:26:40;3.90;;;1.90;;
37483;SDS011;23337;52.212;9.926;2022-08-24T06:29:25;3.70;;;1.80;;
37483;SDS011;23337;52.212;9.926;2022-08-24T06:31:51;3.20;;;2.00;;
37483;SDS011;23337;52.212;9.926;2022-08-24T06:34:17;2.47;;;2.13;;
37483;SDS011;23337;52.212;9.926;2022-08-24T06:36:43;3.40;;;2.13;;
37483;SDS011;23337;52.212;9.926;2022-08-24T06:39:10;3.00;;;1.90;;
37483;SDS011;23337;52.212;9.926;2022-08-24T06:41:36;2.47;;;2.23;;
37483;SDS011;23337;52.212;9.926;2022-08-24T06:44:03;7.10;;;2.47;;
37483;SDS011;23337;52.212;9.926;2022-08-24T06:46:29;4.07;;;2.60;;
37483;SDS011;23337;52.212;9.926;2022-08-24T06:48:54;3.77;;;2.07;;
37483;SDS011;23337;52.212;9.926;2022-08-24T06:51:21;2.67;;;1.80;;
37483;SDS011;23337;52.212;9.926;2022-08-24T06:53:48;4.57;;;2.30;;
37483;SDS011;23337;52.212;9.926;2022-08-24T06:56:14;3.67;;;2.30;;
37483;SDS011;23337;52.212;9.926;2022-08-24T06:58:41;3.40;;;1.87;;
37483;SDS011;23337;52.212;9.926;2022-08-24T07:01:11;3.73;;;2.17;;
37483;SDS011;23337;52.212;9.926;2022-08-24T07:03:37;3.20;;;2.00;;
37483;SDS011;23337;52.212;9.926;2022-08-24T07:06:03;2.93;;;2.17;;
37483;SDS011;23337;52.212;9.926;2022-08-24T07:08:30;7.13;;;2.60;;
37483;SDS011;23337;52.212;9.926;2022-08-24T07:10:56;4.47;;;2.03;;
37483;SDS011;23337;52.212;9.926;2022-08-24T07:13:23;3.13;;;2.10;;
37483;SDS011;23337;52.212;9.926;2022-08-24T07:15:49;4.10;;;2.50;;
37483;SDS011;23337;52.212;9.926;2022-08-24T07:18:16;4.80;;;1.80;;
37483;SDS011;23337;52.212;9.926;2022-08-24T07:20:42;3.53;;;2.30;;
37483;SDS011;23337;52.212;9.926;2022-08-24T07:23:08;3.37;;;2.30;;
37483;SDS011;23337;52.212;9.926;2022-08-24T07:25:37;3.00;;;1.90;;
37483;SDS011;23337;52.212;9.926;2022-08-24T07:28:03;4.80;;;2.33;;
37483;SDS011;23337;52.212;9.926;2022-08-24T07:30:29;3.50;;;2.10;;
37483;SDS011;23337;52.212;9.926;2022-08-24T07:32:56;3.60;;;2.03;;
37483;SDS011;23337;52.212;9.926;2022-08-24T07:35:23;3.03;;;1.87;;
37483;SDS011;23337;52.212;9.926;2022-08-24T07:37:49;2.87;;;2.17;;
37483;SDS011;23337;52.212;9.926;2022-08-24T07:40:15;5.40;;;2.10;;
37483;SDS011;23337;52.212;9.926;2022-08-24T07:42:41;3.43;;;2.37;;
37483;SDS011;23337;52.212;9.926;2022-08-24T07:45:08;3.70;;;2.30;;
37483;SDS011;23337;52.212;9.926;2022-08-24T07:47:34;4.93;;;2.17;;
37483;SDS011;23337;52.212;9.926;2022-08-24T07:50:01;2.33;;;1.90;;
37483;SDS011;23337;52.212;9.926;2022-08-24T07:52:27;5.63;;;2.17;;
37483;SDS011;23337;52.212;9.926;2022-08-24T07:54:53;2.57;;;1.70;;
37483;SDS011;23337;52.212;9.926;2022-08-24T07:57:19;4.37;;;1.90;;
37483;SDS011;23337;52.212;9.926;2022-08-24T07:59:45;2.73;;;2.03;;
37483;SDS011;23337;52.212;9.926;2022-08-24T08:02:11;1.70;;;1.60;;
37483;SDS011;23337;52.212;9.926;2022-08-24T08:04:38;2.57;;;1.60;;
37483;SDS011;23337;52.212;9.926;2022-08-24T08:07:04;3.80;;;1.97;;
37483;SDS011;23337;52.212;9.926;2022-08-24T08:09:31;5.03;;;2.20;;
37483;SDS011;23337;52.212;9.926;2022-08-24T08:11:57;2.63;;;2.10;;
37483;SDS011;23337;52.212;9.926;2022-08-24T08:14:23;2.37;;;1.80;;
37483;SDS011;23337;52.212;9.926;2022-08-24T08:16:49;2.80;;;1.77;;
37483;SDS011;23337;52.212;9.926;2022-08-24T08:19:16;4.03;;;2.00;;
37483;SDS011;23337;52.212;9.926;2022-08-24T08:21:43;3.40;;;1.87;;
37483;SDS011;23337;52.212;9.926;2022-08-24T08:24:27;3.10;;;1.70;;
37483;SDS011;23337;52.212;9.926;2022-08-24T08:26:53;3.10;;;1.90;;
37483;SDS011;23337;52.212;9.926;2022-08-24T08:29:21;3.33;;;2.07;;
37483;SDS011;23337;52.212;9.926;2022-08-24T08:31:48;2.20;;;1.93;;
37483;SDS011;23337;52.212;9.926;2022-08-24T08:34:15;4.97;;;2.37;;
37483;SDS011;23337;52.212;9.926;2022-08-24T08:36:42;5.10;;;2.00;;
37483;SDS011;23337;52.212;9.926;2022-08-24T08:39:08;4.87;;;1.90;;
37483;SDS011;23337;52.212;9.926;2022-08-24T08:46:59;5.27;;;2.23;;
37483;SDS011;23337;52.212;9.926;2022-08-24T08:52:21;5.07;;;1.93;;
37483;SDS011;23337;52.212;9.926;2022-08-24T08:55:04;4.17;;;1.90;;
37483;SDS011;23337;52.212;9.926;2022-08-24T09:05:26;6.40;;;1.90;;
37483;SDS011;23337;52.212;9.926;2022-08-24T09:15:28;6.63;;;2.00;;
37483;SDS011;23337;52.212;9.926;2022-08-24T09:20:59;3.20;;;1.53;;
37483;SDS011;23337;52.212;9.926;2022-08-24T09:23:34;3.27;;;1.60;;
37483;SDS011;23337;52.212;9.926;2022-08-24T09:28:51;3.47;;;1.50;;
37483;SDS011;23337;52.212;9.926;2022-08-24T09:31:25;3.43;;;1.53;;
37483;SDS011;23337;52.212;9.926;2022-08-24T09:39:57;3.67;;;1.63;;
37483;SDS011;23337;52.212;9.926;2022-08-24T09:57:28;1.80;;;1.70;;
37483;SDS011;23337;52.212;9.926;2022-08-24T10:00:07;2.80;;;1.90;;
37483;SDS011;23337;52.212;9.926;2022-08-24T10:10:33;2.83;;;1.83;;
37483;SDS011;23337;52.212;9.926;2022-08-24T10:26:31;3.77;;;1.77;;
37483;SDS011;23337;52.212;9.926;2022-08-24T10:31:39;1.87;;;1.60;;
37483;SDS011;23337;52.212;9.926;2022-08-24T10:34:31;3.27;;;1.33;;
37483;SDS011;23337;52.212;9.926;2022-08-24T10:37:13;4.53;;;1.50;;
37483;SDS011;23337;52.212;9.926;2022-08-24T10:39:54;4.93;;;1.97;;
37483;SDS011;23337;52.212;9.926;2022-08-24T10:42:37;3.83;;;1.57;;
37483;SDS011;23337;52.212;9.926;2022-08-24T10:53:26;4.70;;;1.63;;
37483;SDS011;23337;52.212;9.926;2022-08-24T11:01:18;1.70;;;1.60;;
37483;SDS011;23337;52.212;9.926;2022-08-24T11:03:48;1.70;;;1.20;;
37483;SDS011;23337;52.212;9.926;2022-08-24T11:06:15;3.43;;;1.67;;
37483;SDS011;23337;52.212;9.926;2022-08-24T11:08:50;1.70;;;1.20;;
37483;SDS011;23337;52.212;9.926;2022-08-24T11:11:27;2.00;;;1.30;;
37483;SDS011;23337;52.212;9.926;2022-08-24T11:13:55;2.17;;;1.30;;
37483;SDS011;23337;52.212;9.926;2022-08-24T11:16:26;3.43;;;1.30;;
37483;SDS011;23337;52.212;9.926;2022-08-24T11:18:53;1.60;;;1.10;;
37483;SDS011;23337;52.212;9.926;2022-08-24T11:21:31;2.17;;;1.40;;
37483;SDS011;23337;52.212;9.926;2022-08-24T11:24:10;1.90;;;1.20;;
37483;SDS011;23337;52.212;9.926;2022-08-24T11:29:21;4.85;;;1.60;;
37483;SDS011;23337;52.212;9.926;2022-08-24T11:31:51;4.68;;;1.52;;
37483;SDS011;23337;52.212;9.926;2022-08-24T11:34:38;1.80;;;1.70;;
37483;SDS011;23337;52.212;9.926;2022-08-24T11:37:04;3.15;;;1.70;;
37483;SDS011;23337;52.212;9.926;2022-08-24T11:39:35;2.97;;;1.58;;
37483;SDS011;23337;52.212;9.926;2022-08-24T11:47:00;4.03;;;1.30;;
37483;SDS011;23337;52.212;9.926;2022-08-24T11:49:46;4.35;;;1.40;;
37483;SDS011;23337;52.212;9.926;2022-08-24T11:54:58;3.72;;;1.50;;
37483;SDS011;23337;52.212;9.926;2022-08-24T12:02:27;2.28;;;1.23;;
37483;SDS011;23337;52.212;9.926;2022-08-24T12:04:58;4.38;;;1.48;;
37483;SDS011;23337;52.212;9.926;2022-08-24T12:14:58;4.47;;;1.70;;
37483;SDS011;23337;52.212;9.926;2022-08-24T12:19:54;2.97;;;1.40;;
37483;SDS011;23337;52.212;9.926;2022-08-24T12:22:21;3.05;;;1.45;;
37483;SDS011;23337;52.212;9.926;2022-08-24T12:24:49;2.75;;;1.20;;
37483;SDS011;23337;52.212;9.926;2022-08-24T12:27:19;3.53;;;1.73;;
37483;SDS011;23337;52.212;9.926;2022-08-24T12:30:00;3.70;;;1.70;;
37483;SDS011;23337;52.212;9.926;2022-08-24T12:37:36;3.80;;;1.55;;
37483;SDS011;23337;52.212;9.926;2022-08-24T12:40:20;4.82;;;1.80;;
37483;SDS011;23337;52.212;9.926;2022-08-24T12:42:58;2.63;;;1.83;;
37483;SDS011;23337;52.212;9.926;2022-08-24T12:45:26;2.83;;;1.60;;
37483;SDS011;23337;52.212;9.926;2022-08-24T12:50:37;2.00;;;1.40;;
37483;SDS011;23337;52.212;9.926;2022-08-24T12:55:51;3.45;;;1.83;;
37483;SDS011;23337;52.212;9.926;2022-08-24T13:00:47;4.47;;;1.92;;
37483;SDS011;23337;52.212;9.926;2022-08-24T13:03:24;5.03;;;1.75;;
37483;SDS011;23337;52.212;9.926;2022-08-24T13:05:54;2.65;;;1.50;;
37483;SDS011;23337;52.212;9.926;2022-08-24T13:08:31;3.50;;;1.73;;
37483;SDS011;23337;52.212;9.926;2022-08-24T13:10:59;3.60;;;2.10;;
37483;SDS011;23337;52.212;9.926;2022-08-24T13:13:41;3.38;;;2.22;;
37483;SDS011;23337;52.212;9.926;2022-08-24T13:16:07;3.58;;;1.70;;
37483;SDS011;23337;52.212;9.926;2022-08-24T13:21:16;3.47;;;1.67;;
37483;SDS011;23337;52.212;9.926;2022-08-24T13:26:43;4.15;;;1.80;;
37483;SDS011;23337;52.212;9.926;2022-08-24T13:29:09;3.03;;;1.65;;
37483;SDS011;23337;52.212;9.926;2022-08-24T13:31:39;2.55;;;1.80;;
37483;SDS011;23337;52.212;9.926;2022-08-24T13:39:33;3.80;;;1.83;;
37483;SDS011;23337;52.212;9.926;2022-08-24T13:45:14;4.60;;;1.50;;
37483;SDS011;23337;52.212;9.926;2022-08-24T13:56:08;4.60;;;1.60;;
37483;SDS011;23337;52.212;9.926;2022-08-24T13:58:49;2.45;;;1.70;;
37483;SDS011;23337;52.212;9.926;2022-08-24T14:03:51;2.30;;;1.30;;
37483;SDS011;23337;52.212;9.926;2022-08-24T14:08:52;4.68;;;1.45;;
37483;SDS011;23337;52.212;9.926;2022-08-24T14:21:55;2.13;;;1.45;;
37483;SDS011;23337;52.212;9.926;2022-08-24T14:24:25;1.52;;;1.35;;
37483;SDS011;23337;52.212;9.926;2022-08-24T14:26:55;3.45;;;1.45;;
37483;SDS011;23337;52.212;9.926;2022-08-24T14:29:29;2.63;;;1.70;;
37483;SDS011;23337;52.212;9.926;2022-08-24T14:42:15;2.75;;;1.48;;
37483;SDS011;23337;52.212;9.926;2022-08-24T14:47:18;5.47;;;1.65;;
37483;SDS011;23337;52.212;9.926;2022-08-24T14:49:57;2.50;;;1.40;;
37483;SDS011;23337;52.212;9.926;2022-08-24T15:07:55;3.58;;;1.88;;
37483;SDS011;23337;52.212;9.926;2022-08-24T15:10:23;6.43;;;2.17;;
37483;SDS011;23337;52.212;9.926;2022-08-24T15:12:58;4.00;;;1.77;;
37483;SDS011;23337;52.212;9.926;2022-08-24T15:18:00;3.50;;;2.00;;
37483;SDS011;23337;52.212;9.926;2022-08-24T15:20:39;4.38;;;1.95;;
37483;SDS011;23337;52.212;9.926;2022-08-24T15:26:01;2.17;;;1.40;;
37483;SDS011;23337;52.212;9.926;2022-08-24T15:28:29;5.28;;;2.08;;
37483;SDS011;23337;52.212;9.926;2022-08-24T15:33:26;2.38;;;1.88;;
37483;SDS011;23337;52.212;9.926;2022-08-24T15:36:11;3.63;;;1.88;;
37483;SDS011;23337;52.212;9.926;2022-08-24T15:38:38;2.75;;;1.90;;
37483;SDS011;23337;52.212;9.926;2022-08-24T15:43:39;2.90;;;1.85;;
37483;SDS011;23337;52.212;9.926;2022-08-24T15:46:07;3.38;;;2.08;;
37483;SDS011;23337;52.212;9.926;2022-08-24T15:48:33;2.83;;;1.60;;
37483;SDS011;23337;52.212;9.926;2022-08-24T15:50:59;4.35;;;1.88;;
37483;SDS011;23337;52.212;9.926;2022-08-24T15:53:40;2.53;;;1.63;;
37483;SDS011;23337;52.212;9.926;2022-08-24T15:58:46;2.80;;;1.25;;
37483;SDS011;23337;52.212;9.926;2022-08-24T16:03:58;3.70;;;1.73;;
37483;SDS011;23337;52.212;9.926;2022-08-24T16:11:30;3.20;;;1.65;;
37483;SDS011;23337;52.212;9.926;2022-08-24T16:13:56;2.83;;;1.88;;
37483;SDS011;23337;52.212;9.926;2022-08-24T16:16:36;2.30;;;1.38;;
37483;SDS011;23337;52.212;9.926;2022-08-24T16:19:03;2.13;;;1.50;;
37483;SDS011;23337;52.212;9.926;2022-08-24T16:26:32;2.35;;;1.42;;
37483;SDS011;23337;52.212;9.926;2022-08-24T16:34:35;3.63;;;1.70;;
37483;SDS011;23337;52.212;9.926;2022-08-24T16:37:02;2.70;;;1.80;;
37483;SDS011;23337;52.212;9.926;2022-08-24T16:39:28;1.77;;;1.65;;
37483;SDS011;23337;52.212;9.926;2022-08-24T16:41:59;3.28;;;1.95;;
37483;SDS011;23337;52.212;9.926;2022-08-24T16:44:27;5.03;;;2.03;;
37483;SDS011;23337;52.212;9.926;2022-08-24T16:46:53;2.40;;;2.05;;
37483;SDS011;23337;52.212;9.926;2022-08-24T16:49:19;2.53;;;1.80;;
37483;SDS011;23337;52.212;9.926;2022-08-24T16:51:45;2.03;;;1.65;;
37483;SDS011;23337;52.212;9.926;2022-08-24T16:54:11;4.97;;;1.73;;
37483;SDS011;23337;52.212;9.926;2022-08-24T16:56:37;5.18;;;2.08;;
37483;SDS011;23337;52.212;9.926;2022-08-24T16:59:04;4.57;;;2.40;;
37483;SDS011;23337;52.212;9.926;2022-08-24T17:01:30;4.93;;;2.13;;
37483;SDS011;23337;52.212;9.926;2022-08-24T17:03:56;2.47;;;1.83;;
37483;SDS011;23337;52.212;9.926;2022-08-24T17:06:22;2.03;;;1.60;;
37483;SDS011;23337;52.212;9.926;2022-08-24T17:08:49;3.63;;;1.80;;
37483;SDS011;23337;52.212;9.926;2022-08-24T17:11:15;2.55;;;2.05;;
37483;SDS011;23337;52.212;9.926;2022-08-24T17:13:43;4.00;;;1.90;;
37483;SDS011;23337;52.212;9.926;2022-08-24T17:16:09;5.03;;;1.92;;
37483;SDS011;23337;52.212;9.926;2022-08-24T17:18:36;4.38;;;1.85;;
37483;SDS011;23337;52.212;9.926;2022-08-24T17:21:02;5.13;;;2.10;;
37483;SDS011;23337;52.212;9.926;2022-08-24T17:23:29;3.53;;;2.30;;
37483;SDS011;23337;52.212;9.926;2022-08-24T17:25:55;4.22;;;1.92;;
37483;SDS011;23337;52.212;9.926;2022-08-24T17:28:22;2.55;;;2.35;;
37483;SDS011;23337;52.212;9.926;2022-08-24T17:30:48;3.45;;;1.98;;
37483;SDS011;23337;52.212;9.926;2022-08-24T17:33:14;4.65;;;2.20;;
37483;SDS011;23337;52.212;9.926;2022-08-24T17:35:42;2.40;;;1.70;;
37483;SDS011;23337;52.212;9.926;2022-08-24T17:38:08;5.53;;;2.40;;
37483;SDS011;23337;52.212;9.926;2022-08-24T17:40:35;8.45;;;2.65;;
37483;SDS011;23337;52.212;9.926;2022-08-24T17:43:01;4.50;;;2.25;;
37483;SDS011;23337;52.212;9.926;2022-08-24T17:45:27;4.20;;;1.80;;
37483;SDS011;23337;52.212;9.926;2022-08-24T17:47:53;2.40;;;1.85;;
37483;SDS011;23337;52.212;9.926;2022-08-24T17:50:20;5.05;;;2.10;;
37483;SDS011;23337;52.212;9.926;2022-08-24T17:52:48;2.20;;;2.00;;
37483;SDS011;23337;52.212;9.926;2022-08-24T17:55:14;7.10;;;1.60;;
37483;SDS011;23337;52.212;9.926;2022-08-24T17:57:41;4.15;;;2.40;;
37483;SDS011;23337;52.212;9.926;2022-08-24T18:00:08;4.43;;;2.00;;
37483;SDS011;23337;52.212;9.926;2022-08-24T18:02:34;3.03;;;2.35;;
37483;SDS011;23337;52.212;9.926;2022-08-24T18:05:00;3.90;;;2.08;;
37483;SDS011;23337;52.212;9.926;2022-08-24T18:07:26;3.20;;;2.03;;
37483;SDS011;23337;52.212;9.926;2022-08-24T18:09:54;2.90;;;1.52;;
37483;SDS011;23337;52.212;9.926;2022-08-24T18:12:22;3.10;;;1.40;;
37483;SDS011;23337;52.212;9.926;2022-08-24T18:14:49;2.15;;;1.52;;
37483;SDS011;23337;52.212;9.926;2022-08-24T18:17:16;2.10;;;2.00;;
37483;SDS011;23337;52.212;9.926;2022-08-24T18:19:43;4.53;;;2.53;;
37483;SDS011;23337;52.212;9.926;2022-08-24T18:22:09;3.40;;;1.70;;
37483;SDS011;23337;52.212;9.926;2022-08-24T18:24:35;3.45;;;2.28;;
37483;SDS011;23337;52.212;9.926;2022-08-24T18:27:02;5.68;;;2.10;;
37483;SDS011;23337;52.212;9.926;2022-08-24T18:29:29;3.30;;;2.05;;
37483;SDS011;23337;52.212;9.926;2022-08-24T18:31:56;12.35;;;1.95;;
37483;SDS011;23337;52.212;9.926;2022-08-24T18:34:22;5.35;;;2.15;;
37483;SDS011;23337;52.212;9.926;2022-08-24T18:36:48;2.13;;;1.92;;
37483;SDS011;23337;52.212;9.926;2022-08-24T18:39:14;4.80;;;2.28;;
37483;SDS011;23337;52.212;9.926;2022-08-24T18:41:40;6.35;;;2.17;;
37483;SDS011;23337;52.212;9.926;2022-08-24T18:44:07;4.15;;;2.30;;